Estación de Los Maquis
Ultimos registro cada 15 minutos 74
| N° | Estación | Fecha / Hora | Temperatura | Humedad | Lluvia | Velocidad | Dirección | Radiación | Presion |
| 74 | Los Maquis | 02-05-2026 18:15 | 15,8 | 67 | 0 | 0 | 185 | 0 | 1021,1 |
| 73 | Los Maquis | 02-05-2026 18:00 | 17,6 | 62 | 0 | 0 | 32 | 0 | 1020,7 |
| 72 | Los Maquis | 02-05-2026 17:45 | 19,1 | 59 | 0 | 0 | 30 | 11 | 1020,6 |
| 71 | Los Maquis | 02-05-2026 17:30 | 19,9 | 56 | 0 | 0,9 | 284 | 30 | 1020,3 |
| 70 | Los Maquis | 02-05-2026 17:15 | 20,4 | 52 | 0 | 0,4 | 273 | 62 | 1020,3 |
| 69 | Los Maquis | 02-05-2026 17:00 | 20,7 | 52 | 0 | 0,9 | 319 | 109 | 1020,3 |
| 68 | Los Maquis | 02-05-2026 16:45 | 20,8 | 52 | 0 | 1,8 | 314 | 156 | 1020,4 |
| 67 | Los Maquis | 02-05-2026 16:30 | 20,9 | 51 | 0 | 1,8 | 300 | 207 | 1020,4 |
| 66 | Los Maquis | 02-05-2026 16:15 | 21,2 | 52 | 0 | 1,3 | 284 | 246 | 1020,4 |
| 65 | Los Maquis | 02-05-2026 16:00 | 21,3 | 50 | 0 | 2,7 | 300 | 287 | 1020,3 |
| 64 | Los Maquis | 02-05-2026 15:45 | 21,9 | 50 | 0 | 2,2 | 259 | 325 | 1020,1 |
| 63 | Los Maquis | 02-05-2026 15:30 | 21,7 | 52 | 0 | 0,9 | 292 | 360 | 1020,1 |
| 62 | Los Maquis | 02-05-2026 15:15 | 21,3 | 53 | 0 | 1,8 | 338 | 392 | 1020,1 |
| 61 | Los Maquis | 02-05-2026 15:00 | 21,1 | 56 | 0 | 1,3 | 272 | 424 | 1020,1 |
| 60 | Los Maquis | 02-05-2026 14:45 | 20,4 | 58 | 0 | 1,3 | 291 | 454 | 1020,1 |
| 59 | Los Maquis | 02-05-2026 14:30 | 20,3 | 59 | 0 | 0,9 | 317 | 476 | 1020,2 |
| 58 | Los Maquis | 02-05-2026 14:15 | 19,8 | 60 | 0 | 0,9 | 315 | 499 | 1020,4 |
| 57 | Los Maquis | 02-05-2026 14:00 | 19,1 | 63 | 0 | 1,3 | 300 | 519 | 1020,7 |
| 56 | Los Maquis | 02-05-2026 13:45 | 18,7 | 65 | 0 | 0,4 | 282 | 534 | 1020,9 |
| 55 | Los Maquis | 02-05-2026 13:30 | 18,3 | 66 | 0 | 2,2 | 310 | 548 | 1020,9 |
| 54 | Los Maquis | 02-05-2026 13:15 | 17,7 | 69 | 0 | 1,3 | 277 | 559 | 1021,1 |
| 53 | Los Maquis | 02-05-2026 13:00 | 17,2 | 71 | 0 | 2,7 | 282 | 566 | 1021,2 |
| 52 | Los Maquis | 02-05-2026 12:45 | 16,1 | 74 | 0 | 1,8 | 337 | 570 | 1021,6 |
| 51 | Los Maquis | 02-05-2026 12:30 | 15,2 | 78 | 0 | 0 | 324 | 566 | 1021,9 |
| 50 | Los Maquis | 02-05-2026 12:15 | 13,7 | 86 | 0 | 2,2 | 330 | 563 | 1022,1 |
| 49 | Los Maquis | 02-05-2026 12:00 | 11,7 | 96 | 0 | 0,4 | 261 | 557 | 1022,2 |
| 48 | Los Maquis | 02-05-2026 11:45 | 10,6 | 97 | 0 | 0,9 | 257 | 543 | 1022,6 |
| 47 | Los Maquis | 02-05-2026 11:30 | 10,1 | 97 | 0 | 0 | 327 | 527 | 1023,1 |
| 46 | Los Maquis | 02-05-2026 11:15 | 9,8 | 97 | 0 | 1,8 | 272 | 555 | 1023,3 |
| 45 | Los Maquis | 02-05-2026 11:00 | 9,2 | 97 | 0 | 1,3 | 279 | 345 | 1023,4 |
| 44 | Los Maquis | 02-05-2026 10:45 | 9 | 97 | 0 | 0,9 | 292 | 260 | 1023,6 |
| 43 | Los Maquis | 02-05-2026 10:30 | 9,1 | 97 | 0 | 1,3 | 275 | 274 | 1023,7 |
| 42 | Los Maquis | 02-05-2026 10:15 | 8,1 | 97 | 0 | 0,4 | 303 | 146 | 1023,5 |
| 41 | Los Maquis | 02-05-2026 10:00 | 7,8 | 97 | 0 | 0,4 | 61 | 250 | 1023,7 |
| 40 | Los Maquis | 02-05-2026 09:45 | 7,4 | 97 | 0 | 0 | 67 | 120 | 1024,1 |
| 39 | Los Maquis | 02-05-2026 09:30 | 7,3 | 97 | 0 | 0,4 | 3 | 91 | 1024,1 |
| 38 | Los Maquis | 02-05-2026 09:15 | 7,1 | 97 | 0 | 0 | 261 | 72 | 1024 |
| 37 | Los Maquis | 02-05-2026 09:00 | 7 | 96 | 0 | 0 | 88 | 74 | 1024 |
| 36 | Los Maquis | 02-05-2026 08:45 | 6,9 | 97 | 0 | 0,4 | 50 | 60 | 1024 |
| 35 | Los Maquis | 02-05-2026 08:30 | 6,2 | 96 | 0 | 0 | 248 | 54 | 1023,8 |
| 34 | Los Maquis | 02-05-2026 08:15 | 5,8 | 96 | 0 | 0 | 122 | 44 | 1023,7 |
| 33 | Los Maquis | 02-05-2026 08:00 | 6 | 96 | 0 | 0 | 209 | 9 | 1023,7 |
| 32 | Los Maquis | 02-05-2026 07:45 | 5,4 | 96 | 0 | 0,9 | 197 | 9 | 1023,3 |
| 31 | Los Maquis | 02-05-2026 07:30 | 4,9 | 96 | 0 | 0,4 | 230 | 5 | 1023,3 |
| 30 | Los Maquis | 02-05-2026 07:15 | 5,2 | 96 | 0 | 0 | 106 | 0 | 1023,2 |
| 29 | Los Maquis | 02-05-2026 07:00 | 5,6 | 96 | 0 | 0 | 96 | 0 | 1023,2 |
| 28 | Los Maquis | 02-05-2026 06:45 | 5,8 | 96 | 0 | 0 | 96 | 0 | 1023,3 |
| 27 | Los Maquis | 02-05-2026 06:30 | 6,2 | 96 | 0 | 0 | 129 | 0 | 1023,6 |
| 26 | Los Maquis | 02-05-2026 06:15 | 5,9 | 96 | 0 | 0 | 190 | 0 | 1023,5 |
| 25 | Los Maquis | 02-05-2026 06:00 | 6,3 | 96 | 0 | 0 | 205 | 0 | 1023,5 |
| 24 | Los Maquis | 02-05-2026 05:45 | 6,3 | 96 | 0 | 0 | 111 | 0 | 1023,6 |
| 23 | Los Maquis | 02-05-2026 05:30 | 5,9 | 95 | 0 | 0 | 190 | 0 | 1023,7 |
| 22 | Los Maquis | 02-05-2026 05:15 | 6,3 | 96 | 0 | 0,9 | 185 | 0 | 1023,8 |
| 21 | Los Maquis | 02-05-2026 05:00 | 5,9 | 95 | 0 | 0,9 | 190 | 0 | 1023,9 |
| 20 | Los Maquis | 02-05-2026 04:45 | 6,1 | 95 | 0 | 0 | 180 | 0 | 1024,1 |
| 19 | Los Maquis | 02-05-2026 04:30 | 6,3 | 95 | 0 | 0 | 77 | 0 | 1024,1 |
| 18 | Los Maquis | 02-05-2026 04:15 | 6,8 | 95 | 0 | 0 | 223 | 0 | 1024,2 |
| 17 | Los Maquis | 02-05-2026 04:00 | 7 | 95 | 0 | 0,4 | 232 | 0 | 1024,2 |
| 16 | Los Maquis | 02-05-2026 03:45 | 7,1 | 95 | 0,2 | 0 | 221 | 0 | 1024,3 |
| 15 | Los Maquis | 02-05-2026 03:30 | 7,3 | 95 | 0 | 0 | 190 | 0 | 1024,4 |
| 14 | Los Maquis | 02-05-2026 03:15 | 7,1 | 95 | 0 | 0 | 173 | 0 | 1024,5 |
| 13 | Los Maquis | 02-05-2026 03:00 | 7,4 | 95 | 0 | 0 | 94 | 0 | 1024,8 |
| 12 | Los Maquis | 02-05-2026 02:45 | 7,4 | 95 | 0 | 0 | 114 | 0 | 1025 |
| 11 | Los Maquis | 02-05-2026 02:30 | 7,6 | 95 | 0 | 0 | 111 | 0 | 1025,3 |
| 10 | Los Maquis | 02-05-2026 02:15 | 7,6 | 95 | 0 | 0 | 166 | 0 | 1025,3 |
| 9 | Los Maquis | 02-05-2026 02:00 | 7,5 | 95 | 0 | 0 | 110 | 0 | 1025,5 |
| 8 | Los Maquis | 02-05-2026 01:45 | 7,6 | 94 | 0 | 0 | 110 | 0 | 1025,6 |
| 7 | Los Maquis | 02-05-2026 01:30 | 7,8 | 95 | 0 | 0 | 109 | 0 | 1025,9 |
| 6 | Los Maquis | 02-05-2026 01:15 | 7,9 | 94 | 0 | 0 | 109 | 0 | 1026,1 |
| 5 | Los Maquis | 02-05-2026 01:00 | 8,1 | 95 | 0 | 0 | 109 | 0 | 1026,3 |
| 4 | Los Maquis | 02-05-2026 00:45 | 8,2 | 95 | 0 | 0 | 108 | 0 | 1026,3 |
| 3 | Los Maquis | 02-05-2026 00:30 | 8,2 | 95 | 0 | 0 | 104 | 0 | 1026,5 |
| 2 | Los Maquis | 02-05-2026 00:15 | 8,3 | 95 | 0 | 0 | 104 | 0 | 1026,6 |
| 1 | Los Maquis | 02-05-2026 00:00 | 8,4 | 95 | 0 | 0 | 99 | 0 | 1026,8 |